createdAt,value
2023-04-03T00:01:15.940Z,9.32
2023-04-03T00:03:44.422Z,9.28
2023-04-03T00:06:12.908Z,9.25
2023-04-03T00:08:41.654Z,9.21
2023-04-03T00:11:09.802Z,9.18
2023-04-03T00:13:38.722Z,9.15
2023-04-03T00:16:07.768Z,9.11
2023-04-03T00:18:36.956Z,9.08
2023-04-03T00:21:05.172Z,9.05
2023-04-03T00:23:33.344Z,9.04
2023-04-03T00:26:01.314Z,9.02
2023-04-03T00:28:29.503Z,9.00
2023-04-03T00:30:57.724Z,8.99
2023-04-03T00:33:25.974Z,8.98
2023-04-03T00:35:53.950Z,8.96
2023-04-03T00:38:22.510Z,8.92
2023-04-03T00:40:51.107Z,8.89
2023-04-03T00:43:21.215Z,8.85
2023-04-03T00:45:58.131Z,8.82
2023-04-03T00:48:32.648Z,8.79
2023-04-03T00:51:01.621Z,8.76
2023-04-03T00:53:32.354Z,8.73
2023-04-03T00:56:01.149Z,8.71
2023-04-03T00:58:34.351Z,8.69
2023-04-03T01:01:06.369Z,8.66
2023-04-03T01:03:34.390Z,8.62
2023-04-03T01:06:04.007Z,8.58
2023-04-03T01:08:32.178Z,8.55
2023-04-03T01:11:00.155Z,8.53
2023-04-03T01:13:33.446Z,8.50
2023-04-03T01:16:03.287Z,8.47
2023-04-03T01:18:32.060Z,8.43
2023-04-03T01:21:03.101Z,8.41
2023-04-03T01:23:36.386Z,8.38
2023-04-03T01:26:04.476Z,8.36
2023-04-03T01:28:34.495Z,8.34
2023-04-03T01:31:02.473Z,8.31
2023-04-03T01:33:31.665Z,8.30
2023-04-03T01:35:59.862Z,8.28
2023-04-03T01:38:28.750Z,8.25
2023-04-03T01:40:56.921Z,8.21
2023-04-03T01:43:25.834Z,8.18
2023-04-03T01:45:55.911Z,8.14
2023-04-03T01:48:24.122Z,8.11
2023-04-03T01:50:52.096Z,8.05
2023-04-03T01:53:20.377Z,8.00
2023-04-03T01:55:49.178Z,7.94
2023-04-03T01:58:17.851Z,7.90
2023-04-03T02:00:46.382Z,7.86
2023-04-03T02:03:14.526Z,7.83
2023-04-03T02:05:43.108Z,7.80
2023-04-03T02:08:12.621Z,7.76
2023-04-03T02:10:40.689Z,7.71
2023-04-03T02:13:08.663Z,7.66
2023-04-03T02:15:39.205Z,7.63
2023-04-03T02:18:07.932Z,7.59
2023-04-03T02:20:36.541Z,7.56
2023-04-03T02:23:04.849Z,7.55
2023-04-03T02:25:33.147Z,7.53
2023-04-03T02:28:01.108Z,7.52
2023-04-03T02:30:29.014Z,7.50
2023-04-03T02:32:57.050Z,7.48
2023-04-03T02:35:26.511Z,7.46
2023-04-03T02:37:55.777Z,7.44
2023-04-03T02:40:24.357Z,7.43
2023-04-03T02:42:52.761Z,7.43
2023-04-03T02:45:20.926Z,7.43
2023-04-03T02:47:49.148Z,7.42
2023-04-03T02:50:16.984Z,7.42
2023-04-03T02:52:44.874Z,7.42
2023-04-03T02:55:14.886Z,7.42
2023-04-03T02:57:42.843Z,7.42
2023-04-03T03:00:11.428Z,7.42
2023-04-03T03:02:39.434Z,7.43
2023-04-03T03:05:09.662Z,7.43
2023-04-03T03:07:37.741Z,7.44
2023-04-03T03:10:06.201Z,7.43
2023-04-03T03:12:34.162Z,7.43
2023-04-03T03:15:02.056Z,7.42
2023-04-03T03:17:30.131Z,7.39
2023-04-03T03:19:58.190Z,7.38
2023-04-03T03:22:27.207Z,7.38
2023-04-03T03:24:55.983Z,7.38
2023-04-03T03:27:25.083Z,7.38
2023-04-03T03:29:53.361Z,7.38
2023-04-03T03:32:22.023Z,7.39
2023-04-03T03:34:50.536Z,7.38
2023-04-03T03:37:18.424Z,7.37
2023-04-03T03:39:46.456Z,7.36
2023-04-03T03:42:14.875Z,7.34
2023-04-03T03:44:43.047Z,7.33
2023-04-03T03:47:11.969Z,7.33
2023-04-03T03:49:40.730Z,7.33
2023-04-03T03:52:11.679Z,7.33
2023-04-03T03:54:40.173Z,7.32
2023-04-03T03:57:09.283Z,7.33
2023-04-03T03:59:37.754Z,7.34
2023-04-03T04:02:06.386Z,7.34
2023-04-03T04:04:34.558Z,7.33
2023-04-03T04:07:02.659Z,7.33
2023-04-03T04:09:31.895Z,7.33
2023-04-03T04:12:00.279Z,7.33
2023-04-03T04:14:28.770Z,7.34
2023-04-03T04:16:57.514Z,7.34
2023-04-03T04:19:27.269Z,7.36
2023-04-03T04:21:55.871Z,7.36
2023-04-03T04:24:24.140Z,7.37
2023-04-03T04:26:53.445Z,7.38
2023-04-03T04:29:21.690Z,7.39
2023-04-03T04:31:50.651Z,7.39
2023-04-03T04:34:19.322Z,7.40
2023-04-03T04:36:48.039Z,7.40
2023-04-03T04:39:16.382Z,7.41
2023-04-03T04:41:44.591Z,7.42
2023-04-03T04:44:12.754Z,7.43
2023-04-03T04:46:41.455Z,7.43
2023-04-03T04:49:09.695Z,7.44
2023-04-03T04:51:48.361Z,7.45
2023-04-03T04:54:20.303Z,7.46
2023-04-03T04:56:48.816Z,7.47
2023-04-03T04:59:16.962Z,7.49
2023-04-03T05:01:45.290Z,7.49
2023-04-03T05:04:16.849Z,7.50
2023-04-03T05:06:45.691Z,7.51
2023-04-03T05:09:16.851Z,7.51
2023-04-03T05:11:45.541Z,7.51
2023-04-03T05:14:14.227Z,7.53
2023-04-03T05:16:42.951Z,7.54
2023-04-03T05:19:11.095Z,7.54
2023-04-03T05:21:40.091Z,7.56
2023-04-03T05:24:10.619Z,7.57
2023-04-03T05:26:40.863Z,7.58
2023-04-03T05:29:10.153Z,7.60
2023-04-03T05:31:38.498Z,7.61
2023-04-03T05:34:08.250Z,7.63
2023-04-03T05:36:37.249Z,7.64
2023-04-03T05:39:07.388Z,7.65
2023-04-03T05:41:37.814Z,7.65
2023-04-03T05:44:06.184Z,7.65
2023-04-03T05:46:37.435Z,7.65
2023-04-03T05:49:06.944Z,7.65
2023-04-03T05:51:37.470Z,7.64
2023-04-03T05:54:19.777Z,7.62
2023-04-03T05:56:48.263Z,7.61
2023-04-03T05:59:17.162Z,7.62
2023-04-03T06:01:45.746Z,7.61
2023-04-03T06:04:15.250Z,7.60
2023-04-03T06:06:52.694Z,7.60
2023-04-03T06:09:22.147Z,7.60
2023-04-03T06:11:50.265Z,7.60
2023-04-03T06:14:18.604Z,7.60
2023-04-03T06:16:46.508Z,7.60
2023-04-03T06:19:14.464Z,7.60
2023-04-03T06:21:48.290Z,7.61
2023-04-03T06:24:17.171Z,7.62
2023-04-03T06:26:46.051Z,7.61
2023-04-03T06:29:13.935Z,7.63
2023-04-03T06:31:42.003Z,7.65
2023-04-03T06:34:10.389Z,7.68
2023-04-03T06:36:38.775Z,7.71
2023-04-03T06:39:08.172Z,7.74
2023-04-03T06:41:37.236Z,7.77
2023-04-03T06:44:06.163Z,7.79
2023-04-03T06:46:36.758Z,7.82
2023-04-03T06:49:05.183Z,7.86
2023-04-03T06:51:33.269Z,7.88
2023-04-03T06:54:01.233Z,7.90
2023-04-03T06:56:29.414Z,7.92
2023-04-03T06:58:58.840Z,7.93
2023-04-03T07:01:28.959Z,7.90
2023-04-03T07:03:57.538Z,7.86
2023-04-03T07:06:28.108Z,7.83
2023-04-03T07:08:56.461Z,7.82
2023-04-03T07:11:24.943Z,7.82
2023-04-03T07:13:53.390Z,7.81
2023-04-03T07:16:21.333Z,7.81
2023-04-03T07:18:49.561Z,7.81
2023-04-03T07:21:17.863Z,7.81
2023-04-03T07:23:46.224Z,7.82
2023-04-03T07:26:14.222Z,7.82
2023-04-03T07:28:42.593Z,7.83
2023-04-03T07:31:14.731Z,7.84
2023-04-03T07:33:42.955Z,7.84
2023-04-03T07:36:12.012Z,7.85
2023-04-03T07:38:40.022Z,7.87
2023-04-03T07:41:07.852Z,7.88
2023-04-03T07:43:35.988Z,7.89
2023-04-03T07:46:06.178Z,7.91
2023-04-03T07:48:34.019Z,7.93
2023-04-03T07:51:03.061Z,7.93
2023-04-03T07:53:31.344Z,7.94
2023-04-03T07:55:59.833Z,7.94
2023-04-03T07:58:27.897Z,7.95
2023-04-03T08:00:55.781Z,7.96
2023-04-03T08:03:23.854Z,7.97
2023-04-03T08:05:52.238Z,7.98
2023-04-03T08:08:21.661Z,7.99
2023-04-03T08:10:51.468Z,8.00
2023-04-03T08:13:20.158Z,8.01
2023-04-03T08:15:48.156Z,8.01
2023-04-03T08:18:16.412Z,8.01
2023-04-03T08:20:45.093Z,8.01
2023-04-03T08:23:13.116Z,8.03
2023-04-03T08:25:42.204Z,8.04
2023-04-03T08:28:11.988Z,8.04
2023-04-03T08:30:41.088Z,8.05
2023-04-03T08:33:09.177Z,8.05
2023-04-03T08:35:41.911Z,8.05
2023-04-03T08:38:11.227Z,8.06
2023-04-03T08:40:40.767Z,8.06
2023-04-03T08:43:11.702Z,8.08
2023-04-03T08:45:54.442Z,8.09
2023-04-03T08:48:37.770Z,8.12
2023-04-03T08:51:13.186Z,8.15
2023-04-03T08:53:43.425Z,8.18
2023-04-03T08:56:11.313Z,8.21
2023-04-03T08:58:47.862Z,8.24
2023-04-03T09:01:28.022Z,8.28
2023-04-03T09:03:56.297Z,8.31
2023-04-03T09:06:33.669Z,8.34
2023-04-03T09:09:27.950Z,8.36
2023-04-03T09:12:18.892Z,8.39
2023-04-03T09:14:53.057Z,8.42
2023-04-03T09:17:22.054Z,8.44
2023-04-03T09:19:59.086Z,8.46
2023-04-03T09:22:30.081Z,8.49
2023-04-03T09:25:13.011Z,8.51
2023-04-03T09:27:41.543Z,8.55
2023-04-03T09:30:29.805Z,8.58
2023-04-03T09:32:58.442Z,8.61
2023-04-03T09:35:47.284Z,8.64
2023-04-03T09:38:19.068Z,8.67
2023-04-03T09:40:48.616Z,8.69
2023-04-03T09:43:22.588Z,8.72
2023-04-03T09:45:51.012Z,8.74
2023-04-03T09:48:21.199Z,8.77
2023-04-03T09:50:52.497Z,8.78
2023-04-03T09:53:36.943Z,8.79
2023-04-03T09:56:11.596Z,8.81
2023-04-03T09:58:50.488Z,8.82
2023-04-03T10:01:22.205Z,8.83
2023-04-03T10:04:03.794Z,8.83
2023-04-03T10:06:32.742Z,8.84
2023-04-03T10:09:02.061Z,8.86
2023-04-03T10:11:30.333Z,8.87
2023-04-03T10:14:04.070Z,8.89
2023-04-03T10:16:45.634Z,8.89
2023-04-03T10:19:27.292Z,8.89
2023-04-03T10:22:15.547Z,8.89
2023-04-03T10:24:54.549Z,8.90
2023-04-03T10:27:30.829Z,8.90
2023-04-03T10:30:17.828Z,8.90
2023-04-03T10:32:55.971Z,8.87
2023-04-03T10:35:36.293Z,8.88
2023-04-03T10:38:17.772Z,8.89
2023-04-03T10:40:57.419Z,8.89
2023-04-03T10:43:34.095Z,8.91
2023-04-03T10:46:24.626Z,8.92
2023-04-03T10:49:12.832Z,8.94
2023-04-03T10:51:48.992Z,8.95
2023-04-03T10:54:27.806Z,8.94
2023-04-03T10:57:11.873Z,8.93
2023-04-03T11:00:18.078Z,8.89
2023-04-03T11:03:05.083Z,8.86
2023-04-03T11:05:33.711Z,8.82
2023-04-03T11:08:05.930Z,8.81
2023-04-03T11:10:46.102Z,8.77
2023-04-03T11:13:32.092Z,8.75
2023-04-03T11:16:00.710Z,8.71
2023-04-03T11:18:41.751Z,8.68
2023-04-03T11:21:17.604Z,8.65
2023-04-03T11:23:49.685Z,8.62
2023-04-03T11:26:26.542Z,8.59
2023-04-03T11:28:57.530Z,8.56
2023-04-03T11:31:37.706Z,8.54
2023-04-03T11:34:17.336Z,8.53
2023-04-03T11:36:48.560Z,8.51
2023-04-03T11:39:16.817Z,8.49
2023-04-03T11:41:45.243Z,8.47
2023-04-03T11:44:32.201Z,8.44
2023-04-03T11:47:01.759Z,8.40
2023-04-03T11:49:48.616Z,8.37
2023-04-03T11:52:36.863Z,8.34
2023-04-03T11:55:27.774Z,8.31
2023-04-03T11:57:59.419Z,8.29
2023-04-03T12:00:50.203Z,8.27
2023-04-03T12:03:24.326Z,8.23
2023-04-03T12:05:52.716Z,8.22
2023-04-03T12:08:23.754Z,8.19
2023-04-03T12:11:10.215Z,8.16
2023-04-03T12:13:39.560Z,8.15
2023-04-03T12:16:08.870Z,8.13
2023-04-03T12:18:39.689Z,8.12
2023-04-03T12:21:08.063Z,8.10
2023-04-03T12:23:37.482Z,8.09
2023-04-03T12:26:32.372Z,8.09
2023-04-03T12:29:24.822Z,8.09
2023-04-03T12:32:06.377Z,8.09
2023-04-03T12:34:37.546Z,8.09
2023-04-03T12:37:13.800Z,8.10
2023-04-03T12:39:44.873Z,8.10
2023-04-03T12:42:31.550Z,8.09
2023-04-03T12:45:17.904Z,8.07
2023-04-03T12:47:46.482Z,8.06
2023-04-03T12:50:20.734Z,8.05
2023-04-03T12:52:57.922Z,8.07
2023-04-03T12:55:26.100Z,8.08
2023-04-03T12:57:53.981Z,8.10
2023-04-03T13:00:23.894Z,8.14
2023-04-03T13:02:52.159Z,8.18
2023-04-03T13:05:21.073Z,8.21
2023-04-03T13:07:50.681Z,8.23
2023-04-03T13:10:19.400Z,8.26
2023-04-03T13:12:47.658Z,8.30
2023-04-03T13:15:19.003Z,8.33
2023-04-03T13:17:49.589Z,8.37
2023-04-03T13:20:24.024Z,8.40
2023-04-03T13:22:54.902Z,8.43
2023-04-03T13:25:24.454Z,8.47
2023-04-03T13:27:57.565Z,8.50
2023-04-03T13:30:37.897Z,8.54
2023-04-03T13:33:42.060Z,8.58
2023-04-03T13:36:18.165Z,8.62
2023-04-03T13:38:46.508Z,8.66
2023-04-03T13:41:30.650Z,8.67
2023-04-03T13:44:15.295Z,8.69
2023-04-03T13:46:43.578Z,8.72
2023-04-03T13:49:23.842Z,8.72
2023-04-03T13:52:04.228Z,8.72
2023-04-03T13:54:39.279Z,8.73
2023-04-03T13:57:17.677Z,8.74
2023-04-03T13:59:45.938Z,8.75
2023-04-03T14:02:23.432Z,8.76
2023-04-03T14:04:59.187Z,8.77
2023-04-03T14:07:27.297Z,8.79
2023-04-03T14:09:55.517Z,8.81
2023-04-03T14:12:31.499Z,8.83
2023-04-03T14:15:05.894Z,8.86
2023-04-03T14:17:33.797Z,8.89
2023-04-03T14:20:02.962Z,8.91
2023-04-03T14:22:32.727Z,8.93
2023-04-03T14:25:00.679Z,8.94
2023-04-03T14:27:30.473Z,8.96
2023-04-03T14:29:59.262Z,8.96
2023-04-03T14:32:27.705Z,8.98
2023-04-03T14:34:56.500Z,8.98
2023-04-03T14:37:27.683Z,9.00
2023-04-03T14:39:56.421Z,9.01
2023-04-03T14:42:27.630Z,9.02
2023-04-03T14:44:55.881Z,9.03
2023-04-03T14:47:31.326Z,9.04
2023-04-03T14:50:02.038Z,9.04
2023-04-03T14:52:34.787Z,9.05
2023-04-03T14:55:04.091Z,9.06
2023-04-03T14:57:32.729Z,9.07
2023-04-03T15:00:02.177Z,9.08
2023-04-03T15:02:37.208Z,9.11
2023-04-03T15:05:07.367Z,9.12
2023-04-03T15:07:37.460Z,9.13
2023-04-03T15:10:17.115Z,9.14
2023-04-03T15:12:45.586Z,9.14
2023-04-03T15:15:14.078Z,9.15
2023-04-03T15:17:43.003Z,9.16
2023-04-03T15:20:15.440Z,9.16
2023-04-03T15:22:43.980Z,9.15
2023-04-03T15:25:12.013Z,9.16
2023-04-03T15:27:41.519Z,9.14
2023-04-03T15:30:12.364Z,9.12
2023-04-03T15:32:41.292Z,9.11
2023-04-03T15:35:09.739Z,9.07
2023-04-03T15:37:38.941Z,9.05
2023-04-03T15:40:07.422Z,9.04
2023-04-03T15:42:35.494Z,9.02
2023-04-03T15:45:03.603Z,9.01
2023-04-03T15:47:31.495Z,8.99
2023-04-03T15:49:59.723Z,8.97
2023-04-03T15:52:27.811Z,8.96
2023-04-03T15:54:55.781Z,8.93
2023-04-03T15:57:27.238Z,8.92
2023-04-03T15:59:55.431Z,8.90
2023-04-03T16:02:23.825Z,8.89
2023-04-03T16:04:51.979Z,8.88
2023-04-03T16:07:19.942Z,8.86
2023-04-03T16:09:47.813Z,8.85
2023-04-03T16:12:16.094Z,8.84
2023-04-03T16:14:44.074Z,8.82
2023-04-03T16:17:12.250Z,8.80
2023-04-03T16:19:40.331Z,8.79
2023-04-03T16:22:08.614Z,8.78
2023-04-03T16:24:36.917Z,8.78
2023-04-03T16:27:05.371Z,8.79
2023-04-03T16:29:33.223Z,8.80
2023-04-03T16:32:01.324Z,8.82
2023-04-03T16:34:31.343Z,8.83
2023-04-03T16:36:59.537Z,8.83
2023-04-03T16:39:27.595Z,8.83
2023-04-03T16:41:55.585Z,8.79
2023-04-03T16:44:23.446Z,8.75
2023-04-03T16:46:51.220Z,8.71
2023-04-03T16:49:19.419Z,8.68
2023-04-03T16:51:49.316Z,8.64
2023-04-03T16:54:17.290Z,8.58
2023-04-03T16:56:45.563Z,8.54
2023-04-03T16:59:13.506Z,8.50
2023-04-03T17:01:41.587Z,8.47
2023-04-03T17:04:09.639Z,8.42
2023-04-03T17:06:37.665Z,8.38
2023-04-03T17:09:05.949Z,8.34
2023-04-03T17:14:07.182Z,8.28
2023-04-03T17:16:36.509Z,8.26
2023-04-03T17:19:04.563Z,8.24
2023-04-03T17:21:33.747Z,8.23
2023-04-03T17:24:03.928Z,8.20
2023-04-03T17:26:31.905Z,8.17
2023-04-03T17:28:59.974Z,8.16
2023-04-03T17:31:27.957Z,8.14
2023-04-03T17:33:56.130Z,8.11
2023-04-03T17:36:24.390Z,8.08
2023-04-03T17:38:52.511Z,8.06
2023-04-03T17:41:20.919Z,8.03
2023-04-03T17:43:49.357Z,8.00
2023-04-03T17:46:17.731Z,7.96
2023-04-03T17:48:46.045Z,7.92
2023-04-03T17:51:15.634Z,7.87
2023-04-03T17:53:44.631Z,7.84
2023-04-03T17:56:16.388Z,7.79
2023-04-03T17:58:44.924Z,7.74
2023-04-03T18:01:16.163Z,7.70
2023-04-03T18:03:45.029Z,7.66
2023-04-03T18:06:15.251Z,7.62
2023-04-03T18:08:46.295Z,7.59
2023-04-03T18:11:15.569Z,7.57
2023-04-03T18:13:44.184Z,7.54
2023-04-03T18:16:12.996Z,7.52
2023-04-03T18:18:41.374Z,7.49
2023-04-03T18:21:10.976Z,7.47
2023-04-03T18:23:40.181Z,7.44
2023-04-03T18:26:09.997Z,7.43
2023-04-03T18:28:38.785Z,7.40
2023-04-03T18:31:11.032Z,7.38
2023-04-03T18:33:39.130Z,7.38
2023-04-03T18:36:07.310Z,7.37
2023-04-03T18:38:35.268Z,7.37
2023-04-03T18:41:05.716Z,7.37
2023-04-03T18:43:33.833Z,7.38
2023-04-03T18:46:02.226Z,7.37
2023-04-03T18:48:31.397Z,7.36
2023-04-03T18:50:59.556Z,7.36
2023-04-03T18:53:27.425Z,7.36
2023-04-03T18:55:55.466Z,7.36
2023-04-03T18:58:23.489Z,7.36
2023-04-03T19:00:51.513Z,7.34
2023-04-03T19:03:19.745Z,7.32
2023-04-03T19:05:47.895Z,7.30
2023-04-03T19:08:15.983Z,7.29
2023-04-03T19:10:43.968Z,7.28
2023-04-03T19:13:12.042Z,7.25
2023-04-03T19:15:39.918Z,7.25
2023-04-03T19:18:07.929Z,7.26
2023-04-03T19:20:36.578Z,7.28
2023-04-03T19:23:04.416Z,7.30
2023-04-03T19:25:32.624Z,7.32
2023-04-03T19:28:01.001Z,7.34
2023-04-03T19:30:28.978Z,7.36
2023-04-03T19:32:57.127Z,7.37
2023-04-03T19:35:25.117Z,7.38
2023-04-03T19:37:53.537Z,7.39
2023-04-03T19:40:21.487Z,7.39
2023-04-03T19:42:49.566Z,7.40
2023-04-03T19:45:18.240Z,7.39
2023-04-03T19:47:47.045Z,7.37
2023-04-03T19:50:14.932Z,7.38
2023-04-03T19:52:42.905Z,7.38
2023-04-03T19:55:11.211Z,7.38
2023-04-03T19:57:39.469Z,7.38
2023-04-03T20:00:07.737Z,7.39
2023-04-03T20:02:39.461Z,7.39
2023-04-03T20:05:07.887Z,7.40
2023-04-03T20:07:36.175Z,7.39
2023-04-03T20:10:04.350Z,7.38
2023-04-03T20:12:32.314Z,7.34
2023-04-03T20:15:01.218Z,7.32
2023-04-03T20:17:29.217Z,7.28
2023-04-03T20:20:01.434Z,7.23
2023-04-03T20:22:30.052Z,7.19
2023-04-03T20:25:02.152Z,7.15
2023-04-03T20:27:34.984Z,7.10
2023-04-03T20:30:04.516Z,7.08
2023-04-03T20:32:32.444Z,7.03
2023-04-03T20:35:03.887Z,6.99
2023-04-03T20:37:32.755Z,6.94
2023-04-03T20:40:00.617Z,6.91
2023-04-03T20:42:28.892Z,6.88
2023-04-03T20:44:57.439Z,6.85
2023-04-03T20:47:25.797Z,6.84
2023-04-03T20:49:53.979Z,6.83
2023-04-03T20:52:22.628Z,6.82
2023-04-03T20:54:52.441Z,6.82
2023-04-03T20:57:21.004Z,6.83
2023-04-03T20:59:52.030Z,6.84
2023-04-03T21:02:20.857Z,6.85
2023-04-03T21:04:54.162Z,6.86
2023-04-03T21:07:41.497Z,6.88
2023-04-03T21:10:28.585Z,6.87
2023-04-03T21:13:17.445Z,6.85
2023-04-03T21:16:00.114Z,6.84
2023-04-03T21:18:34.580Z,6.84
2023-04-03T21:21:03.151Z,6.83
2023-04-03T21:23:31.538Z,6.83
2023-04-03T21:25:59.823Z,6.83
2023-04-03T21:28:27.897Z,6.82
2023-04-03T21:30:56.509Z,6.82
2023-04-03T21:33:24.671Z,6.82
2023-04-03T21:35:58.000Z,6.81
2023-04-03T21:38:28.908Z,6.79
2023-04-03T21:40:58.116Z,6.79
2023-04-03T21:43:26.827Z,6.77
2023-04-03T21:45:58.723Z,6.76
2023-04-03T21:48:30.552Z,6.75
2023-04-03T21:51:02.590Z,6.73
2023-04-03T21:53:31.886Z,6.73
2023-04-03T21:56:02.599Z,6.71
2023-04-03T21:58:32.490Z,6.70
2023-04-03T22:01:11.376Z,6.70
2023-04-03T22:03:40.673Z,6.70
2023-04-03T22:06:10.296Z,6.68
2023-04-03T22:08:38.573Z,6.67
2023-04-03T22:11:07.769Z,6.67
2023-04-03T22:13:36.355Z,6.66
2023-04-03T22:16:04.778Z,6.63
2023-04-03T22:18:32.720Z,6.62
2023-04-03T22:21:01.098Z,6.60
2023-04-03T22:23:29.077Z,6.58
2023-04-03T22:26:04.108Z,6.57
2023-04-03T22:28:33.717Z,6.57
2023-04-03T22:31:03.932Z,6.57
2023-04-03T22:33:31.916Z,6.57
2023-04-03T22:35:59.771Z,6.57
2023-04-03T22:38:27.860Z,6.56
2023-04-03T22:40:56.548Z,6.55
2023-04-03T22:43:25.449Z,6.54
2023-04-03T22:45:53.730Z,6.55
2023-04-03T22:48:22.011Z,6.54
2023-04-03T22:50:50.379Z,6.54
2023-04-03T22:53:18.981Z,6.52
2023-04-03T22:55:56.581Z,6.51
2023-04-03T22:58:26.832Z,6.51
2023-04-03T23:01:06.012Z,6.48
2023-04-03T23:03:34.844Z,6.46
2023-04-03T23:06:04.059Z,6.44
2023-04-03T23:08:33.529Z,6.44
2023-04-03T23:11:01.859Z,6.43
2023-04-03T23:13:30.089Z,6.41
2023-04-03T23:15:59.102Z,6.40
2023-04-03T23:18:29.659Z,6.38
2023-04-03T23:21:03.730Z,6.38
2023-04-03T23:23:32.262Z,6.39
2023-04-03T23:26:01.423Z,6.39
2023-04-03T23:28:30.161Z,6.41
2023-04-03T23:31:02.185Z,6.41
2023-04-03T23:33:32.025Z,6.44
2023-04-03T23:36:01.300Z,6.43
2023-04-03T23:38:29.730Z,6.43
2023-04-03T23:40:57.767Z,6.45
2023-04-03T23:43:25.638Z,6.44
2023-04-03T23:45:54.088Z,6.43
2023-04-03T23:48:22.130Z,6.42
2023-04-03T23:50:50.084Z,6.41
2023-04-03T23:53:18.568Z,6.38
2023-04-03T23:55:46.644Z,6.35
2023-04-03T23:58:14.608Z,6.34
